createdAt,value
2019-05-13T00:01:06.709Z,91.8
2019-05-13T00:06:04.977Z,92.2
2019-05-13T00:11:10.258Z,92.5
2019-05-13T00:16:16.782Z,92.8
2019-05-13T00:21:24.358Z,92.8
2019-05-13T00:26:28.530Z,93.3
2019-05-13T00:31:35.419Z,93.5
2019-05-13T00:36:39.234Z,93.5
2019-05-13T00:41:46.869Z,93.5
2019-05-13T00:46:54.670Z,93.5
2019-05-13T00:52:00.206Z,94.3
2019-05-13T00:57:06.869Z,93.9
2019-05-13T01:02:14.853Z,93.9
2019-05-13T01:07:30.845Z,94.1
2019-05-13T01:12:26.553Z,94.1
2019-05-13T01:17:33.911Z,94
2019-05-13T01:22:39.560Z,94
2019-05-13T01:27:46.953Z,94.9
2019-05-13T01:32:54.806Z,94.9
2019-05-13T01:37:58.630Z,95.1
2019-05-13T01:43:06.418Z,95.7
2019-05-13T01:48:13.846Z,95.7
2019-05-13T01:53:19.445Z,95.9
2019-05-13T01:58:26.433Z,95.9
2019-05-13T02:03:34.541Z,95.9
2019-05-13T02:08:40.042Z,95.7
2019-05-13T02:13:47.330Z,95.2
2019-05-13T02:18:54.742Z,95.2
2019-05-13T02:24:00.105Z,95
2019-05-13T02:29:06.464Z,94.1
2019-05-13T02:34:16.160Z,93.7
2019-05-13T02:35:35.241Z,93.7
2019-05-13T02:40:43.973Z,93.6
2019-05-13T02:45:52.737Z,93.4
2019-05-13T02:50:58.454Z,93.1
2019-05-13T02:56:05.661Z,92.3
2019-05-13T03:01:14.988Z,92
2019-05-13T03:06:24.011Z,92.2
2019-05-13T03:11:29.245Z,92.2
2019-05-13T03:16:35.317Z,92.1
2019-05-13T03:21:43.730Z,92.1
2019-05-13T03:26:49.051Z,92.1
2019-05-13T03:31:58.762Z,92.7
2019-05-13T03:37:16.649Z,92.5
2019-05-13T03:42:15.102Z,92.4
2019-05-13T03:47:23.883Z,92.4
2019-05-13T03:52:29.233Z,92.2
2019-05-13T03:57:36.414Z,91.7
2019-05-13T04:02:44.702Z,91.4
2019-05-13T04:07:53.082Z,91.4
2019-05-13T04:12:58.319Z,91
2019-05-13T04:18:05.435Z,91
2019-05-13T04:23:11.919Z,91
2019-05-13T04:28:18.080Z,90.8
2019-05-13T04:33:25.809Z,90.8
2019-05-13T04:38:29.917Z,90.8
2019-05-13T04:43:37.846Z,90.7
2019-05-13T04:48:47.074Z,90.6
2019-05-13T04:54:02.369Z,90.5
2019-05-13T04:58:56.756Z,90.5
2019-05-13T05:04:31.014Z,90.3
2019-05-13T05:09:07.770Z,90.4
2019-05-13T05:14:14.890Z,89.1
2019-05-13T05:19:19.084Z,89.3
2019-05-13T05:24:25.066Z,88.7
2019-05-13T05:29:32.830Z,88.7
2019-05-13T05:34:38.101Z,88.6
2019-05-13T05:39:44.737Z,89
2019-05-13T05:44:52.659Z,88.8
2019-05-13T05:49:58.097Z,88.9
2019-05-13T05:55:05.076Z,87.6
2019-05-13T06:00:13.358Z,87.9
2019-05-13T06:05:20.774Z,87.8
2019-05-13T06:10:26.713Z,86.7
2019-05-13T06:20:38.089Z,87.5
2019-05-13T06:25:45.377Z,87.3
2019-05-13T06:30:45.686Z,87.3
2019-05-13T06:35:49.198Z,87.2
2019-05-13T06:41:15.554Z,86.2
2019-05-13T06:46:01.628Z,86.2
2019-05-13T06:51:07.079Z,85.7
2019-05-13T06:56:14.902Z,82.9
2019-05-13T07:01:23.917Z,82.8
2019-05-13T07:06:33.018Z,80.5
2019-05-13T07:11:38.410Z,80.3
2019-05-13T07:16:45.160Z,76.7
2019-05-13T07:21:54.724Z,75.3
2019-05-13T07:27:02.642Z,74.8
2019-05-13T07:32:12.822Z,67.1
2019-05-13T07:37:08.006Z,67.1
2019-05-13T07:42:15.343Z,65.4
2019-05-13T07:47:23.159Z,65.6
2019-05-13T07:52:28.398Z,65.6
2019-05-13T07:57:34.638Z,66.9
2019-05-13T08:02:42.511Z,66.8
2019-05-13T08:07:47.701Z,69
2019-05-13T08:12:54.286Z,62.2
2019-05-13T08:18:02.805Z,61.3
2019-05-13T08:23:06.543Z,51.6
2019-05-13T08:28:07.714Z,51.4
2019-05-13T08:33:15.267Z,46
2019-05-13T08:38:15.247Z,46
2019-05-13T08:43:19.330Z,47.1
2019-05-13T08:48:28.979Z,43.9
2019-05-13T08:53:28.158Z,43.9
2019-05-13T08:58:34.842Z,43.3
2019-05-13T09:03:37.453Z,44
2019-05-13T09:08:45.481Z,46.4
2019-05-13T09:13:45.074Z,47.7
2019-05-13T09:18:54.771Z,46.7
2019-05-13T09:23:53.439Z,44.5
2019-05-13T09:29:03.217Z,43.6
2019-05-13T09:34:04.287Z,42.2
2019-05-13T09:39:13.741Z,39.1
2019-05-13T09:44:21.744Z,39.1
2019-05-13T09:49:29.073Z,40.9
2019-05-13T09:54:36.487Z,44.7
2019-05-13T09:59:44.752Z,38.6
2019-05-13T10:04:51.212Z,38.5
2019-05-13T10:09:53.974Z,33.5
2019-05-13T10:15:01.704Z,33.9
2019-05-13T10:20:06.787Z,33
2019-05-13T10:25:11.387Z,29.3
2019-05-13T10:30:17.239Z,29.3
2019-05-13T10:35:22.415Z,31
2019-05-13T10:40:27.310Z,31.7
2019-05-13T10:45:35.798Z,31.7
2019-05-13T10:50:43.615Z,29.6
2019-05-13T10:55:48.691Z,29.5
2019-05-13T11:00:55.112Z,27.7
2019-05-13T11:06:00.277Z,27.6
2019-05-13T11:11:05.464Z,27.2
2019-05-13T11:16:14.039Z,27.3
2019-05-13T11:21:23.090Z,27.3
2019-05-13T11:26:28.293Z,28.3
2019-05-13T11:31:35.658Z,31.3
2019-05-13T11:36:48.921Z,32.2
2019-05-13T11:41:47.878Z,32
2019-05-13T11:46:55.844Z,36.2
2019-05-13T11:52:04.568Z,36.8
2019-05-13T11:57:13.019Z,36.9
2019-05-13T12:02:17.952Z,39.1
2019-05-13T12:07:25.868Z,43.5
2019-05-13T12:12:48.649Z,45.4
2019-05-13T12:17:36.722Z,47
2019-05-13T12:22:44.482Z,47.6
2019-05-13T12:27:52.660Z,47.6
2019-05-13T12:33:02.551Z,47.7
2019-05-13T12:38:08.268Z,47.7
2019-05-13T12:43:16.368Z,45.9
2019-05-13T12:48:16.704Z,45.8
2019-05-13T12:53:24.580Z,47.1
2019-05-13T12:58:33.521Z,47.2
2019-05-13T13:03:39.106Z,49.3
2019-05-13T13:08:52.644Z,50.2
2019-05-13T13:14:20.851Z,50.6
2019-05-13T13:18:57.238Z,50.7
2019-05-13T13:24:07.314Z,49.2
2019-05-13T13:29:02.403Z,49.2
2019-05-13T13:34:25.321Z,53.3
2019-05-13T13:39:16.505Z,53.1
2019-05-13T13:44:14.732Z,53.9
2019-05-13T13:49:25.912Z,53.8
2019-05-13T13:54:24.517Z,53.9
2019-05-13T13:59:35.554Z,53.9
2019-05-13T14:04:30.841Z,54.3
2019-05-13T14:09:38.791Z,54.5
2019-05-13T14:14:44.206Z,56.5
2019-05-13T14:19:51.715Z,56.6
2019-05-13T14:24:57.788Z,57.7
2019-05-13T14:30:04.080Z,57.9
2019-05-13T14:35:14.101Z,57.3
2019-05-13T14:40:11.850Z,57.4
2019-05-13T14:45:20.343Z,56.6
2019-05-13T14:50:16.311Z,56.6
2019-05-13T14:55:24.106Z,56.7
2019-05-13T15:00:29.174Z,56.7
2019-05-13T15:05:34.048Z,57.2
2019-05-13T15:15:44.740Z,58.9
2019-05-13T15:20:53.494Z,59.5
2019-05-13T15:25:58.583Z,59.5
2019-05-13T15:31:03.792Z,59.8
2019-05-13T15:36:08.998Z,60
2019-05-13T15:41:18.294Z,61.6
2019-05-13T15:46:24.536Z,61.4
2019-05-13T15:51:32.366Z,61.4
2019-05-13T15:56:36.296Z,61.1
2019-05-13T16:01:43.380Z,60.8
2019-05-13T16:06:48.112Z,60.8
2019-05-13T16:11:54.723Z,59.9
2019-05-13T16:17:00.822Z,60.4
2019-05-13T16:22:08.952Z,60.3
2019-05-13T16:27:17.275Z,61.4
2019-05-13T16:32:25.435Z,61.9
2019-05-13T16:37:31.134Z,61.9
2019-05-13T16:42:36.576Z,59.9
2019-05-13T16:48:06.156Z,61.7
2019-05-13T16:52:53.903Z,62
2019-05-13T16:57:57.311Z,62.1
2019-05-13T17:03:06.473Z,63
2019-05-13T17:08:09.983Z,63
2019-05-13T17:18:24.643Z,62.9
2019-05-13T17:23:29.796Z,62.9
2019-05-13T17:28:37.007Z,63.1
2019-05-13T17:33:42.545Z,63.1
2019-05-13T17:38:47.787Z,63.5
2019-05-13T17:43:54.374Z,62.2
2019-05-13T17:49:00.981Z,62.2
2019-05-13T17:54:06.472Z,63.5
2019-05-13T17:59:17.225Z,64.4
2019-05-13T18:04:14.622Z,65.4
2019-05-13T18:09:18.112Z,65.2
2019-05-13T18:14:24.394Z,62.9
2019-05-13T18:19:33.764Z,64.1
2019-05-13T18:24:39.252Z,64.1
2019-05-13T18:29:45.799Z,64.5
2019-05-13T18:34:51.211Z,65.2
2019-05-13T18:39:56.165Z,64.9
2019-05-13T18:45:03.879Z,64.9
2019-05-13T18:50:13.168Z,65.7
2019-05-13T18:55:20.500Z,67.4
2019-05-13T19:00:25.398Z,67.5
2019-05-13T19:05:32.431Z,66.8
2019-05-13T19:10:37.514Z,65.5
2019-05-13T19:15:43.984Z,70.6
2019-05-13T19:20:51.137Z,70.8
2019-05-13T19:25:51.315Z,68.6
2019-05-13T19:30:59.378Z,66.6
2019-05-13T19:36:04.181Z,65.1
2019-05-13T19:41:11.605Z,64.2
2019-05-13T19:46:16.792Z,64.1
2019-05-13T19:51:33.061Z,63.6
2019-05-13T19:56:28.329Z,63.4
2019-05-13T20:01:34.810Z,60.3
2019-05-13T20:06:42.234Z,60.2
2019-05-13T20:11:47.211Z,59.9
2019-05-13T20:16:55.000Z,59.6
2019-05-13T20:22:02.120Z,59.5
2019-05-13T20:27:07.599Z,59.6
2019-05-13T20:32:14.232Z,59.3
2019-05-13T20:37:21.433Z,59.3
2019-05-13T20:42:26.928Z,59.4
2019-05-13T20:47:35.857Z,58.9
2019-05-13T20:52:44.029Z,58.4
2019-05-13T20:57:44.411Z,58.3
2019-05-13T21:02:51.491Z,58.3
2019-05-13T21:07:57.156Z,58.4
2019-05-13T21:13:04.470Z,59
2019-05-13T21:18:12.351Z,59.1
2019-05-13T21:23:17.530Z,59.6
2019-05-13T21:28:24.970Z,63.9
2019-05-13T21:33:32.437Z,68.2
2019-05-13T21:38:37.662Z,68.2
2019-05-13T21:43:43.258Z,72.8
2019-05-13T21:48:44.233Z,74.2
2019-05-13T21:53:49.172Z,74
2019-05-13T21:58:54.860Z,74.1
2019-05-13T22:04:02.539Z,74
2019-05-13T22:09:07.912Z,74.6
2019-05-13T22:14:13.874Z,75.9
2019-05-13T22:19:19.115Z,75.9
2019-05-13T22:24:24.608Z,74.9
2019-05-13T22:29:31.533Z,75.4
2019-05-13T22:34:37.143Z,76.8
2019-05-13T22:39:44.575Z,84.5
2019-05-13T22:44:52.053Z,84.6
2019-05-13T22:50:01.722Z,89.9
2019-05-13T22:55:05.534Z,90.3
2019-05-13T23:00:13.547Z,91.6
2019-05-13T23:05:18.606Z,91.5
2019-05-13T23:10:25.148Z,91.8
2019-05-13T23:15:30.308Z,91.8
2019-05-13T23:20:35.770Z,91.9
2019-05-13T23:25:45.060Z,96.4
2019-05-13T23:30:52.010Z,96.5
2019-05-13T23:35:56.880Z,95.9
2019-05-13T23:41:04.552Z,96.6
2019-05-13T23:46:12.508Z,96.9
2019-05-13T23:51:18.043Z,97.3
2019-05-13T23:56:24.481Z,98.1
